Time;durP1;ratioP1;P1;durP2;ratioP2;P2;SDS_P1;SDS_P2;PMS_P1;PMS_P2;Temp;Humidity;BMP_temperature;BMP_pressure;BME280_temperature;BME280_humidity;BME280_pressure;Samples;Min_cycle;Max_cycle;Signal;HPM_P1;HPM_P2
2021/11/02 00:00:06;;;;;;;18.27;11.65;;;;;;;5.95;97.53;92588.31;5052049;28;20060;-82
2021/11/02 00:02:33;;;;;;;19.05;11.80;;;;;;;5.94;97.46;92601.25;5051847;28;20057;-82
2021/11/02 00:05:00;;;;;;;19.35;12.20;;;;;;;5.95;97.17;92590.88;5051402;28;20045;-82
2021/11/02 00:07:28;;;;;;;17.55;12.60;;;;;;;5.94;97.15;92586.75;5051614;28;20072;-82
2021/11/02 00:10:01;;;;;;;17.55;12.52;;;;;;;5.63;96.89;92547.31;5051453;28;20077;-81
2021/11/02 00:12:30;;;;;;;19.58;12.70;;;;;;;5.88;97.15;92590.84;5050972;28;20114;-81
2021/11/02 00:14:56;;;;;;;20.05;13.02;;;;;;;5.86;97.32;92592.81;5051597;28;20045;-81
2021/11/02 00:17:25;;;;;;;17.38;11.65;;;;;;;5.66;97.13;92572.44;5051734;28;20048;-81
2021/11/02 00:19:57;;;;;;;18.98;10.65;;;;;;;5.66;96.90;92556.34;5051425;28;20969;-80
2021/11/02 00:22:25;;;;;;;16.80;11.68;;;;;;;5.71;97.95;92584.56;5051435;28;20467;-81
2021/11/02 00:27:41;;;;;;;19.77;11.65;;;;;;;5.51;99.34;92574.38;5045299;28;20161;-81
2021/11/02 00:30:10;;;;;;;18.30;12.02;;;;;;;5.45;99.60;92574.16;5050904;28;20055;-81
2021/11/02 00:32:38;;;;;;;18.25;12.85;;;;;;;5.31;99.87;92572.56;5051218;28;20139;-81
2021/11/02 00:35:06;;;;;;;19.23;13.00;;;;;;;5.22;100.00;92566.84;5051224;28;20056;-81
2021/11/02 00:37:33;;;;;;;22.45;14.15;;;;;;;5.15;100.00;92566.84;5051088;28;20060;-82
2021/11/02 00:40:00;;;;;;;20.33;13.30;;;;;;;5.07;100.00;92562.72;5050563;28;20055;-82
2021/11/02 00:42:33;;;;;;;20.35;13.63;;;;;;;5.07;100.00;92561.94;5051009;28;20540;-82
2021/11/02 00:45:03;;;;;;;20.08;12.82;;;;;;;4.98;100.00;92540.16;5051396;28;20051;-82
2021/11/02 00:47:32;;;;;;;21.10;13.50;;;;;;;5.13;100.00;92557.84;5051016;28;20059;-82
2021/11/02 00:49:59;;;;;;;22.15;13.40;;;;;;;5.13;100.00;92553.50;5050735;28;20048;-82
2021/11/02 00:52:26;;;;;;;20.00;13.75;;;;;;;5.12;100.00;92549.41;5050786;28;20845;-82
2021/11/02 00:54:53;;;;;;;22.35;13.88;;;;;;;5.19;100.00;92554.53;5049910;28;20067;-82
2021/11/02 00:57:19;;;;;;;22.80;14.20;;;;;;;5.19;100.00;92562.16;5050785;28;20144;-82
2021/11/02 00:59:47;;;;;;;22.42;13.82;;;;;;;5.10;100.00;92553.91;5051053;28;20052;-81
2021/11/02 01:02:15;;;;;;;20.05;13.10;;;;;;;4.99;100.00;92539.19;5051113;28;20080;-82
2021/11/02 01:04:42;;;;;;;22.67;13.88;;;;;;;5.29;100.00;92567.66;5050826;28;20061;-82
2021/11/02 01:07:08;;;;;;;21.70;14.57;;;;;;;5.35;100.00;92571.19;5050145;28;20110;-81
2021/11/02 01:09:36;;;;;;;19.35;12.73;;;;;;;5.40;100.00;92576.50;5050838;28;20574;-81
2021/11/02 01:12:03;;;;;;;22.65;13.50;;;;;;;5.45;100.00;92570.81;5050619;28;20063;-81
2021/11/02 01:14:30;;;;;;;20.58;12.95;;;;;;;5.49;100.00;92559.25;5049754;28;20037;-81
2021/11/02 01:16:56;;;;;;;19.70;12.60;;;;;;;5.46;100.00;92536.75;5050488;28;20053;-82
2021/11/02 01:19:25;;;;;;;22.23;12.73;;;;;;;5.46;100.00;92545.16;5050109;28;20052;-82
2021/11/02 01:21:52;;;;;;;21.90;13.88;;;;;;;5.56;100.00;92544.00;5050459;28;20048;-82
2021/11/02 01:24:20;;;;;;;27.80;14.43;;;;;;;5.62;100.00;92543.97;5050835;28;20040;-82
2021/11/02 01:26:48;;;;;;;22.15;14.00;;;;;;;5.64;100.00;92533.59;5050399;28;20492;-82
2021/11/02 01:29:16;;;;;;;25.15;14.43;;;;;;;5.54;100.00;92511.06;5050433;28;20056;-82
2021/11/02 01:31:43;;;;;;;17.90;12.13;;;;;;;5.81;100.00;92539.09;5050424;28;20044;-82
2021/11/02 01:34:10;;;;;;;17.67;12.02;;;;;;;5.91;99.73;92532.81;5049724;28;21369;-82
2021/11/02 01:36:39;;;;;;;16.95;11.07;;;;;;;5.87;98.80;92505.19;5050150;28;20292;-81
2021/11/02 01:39:07;;;;;;;19.50;12.52;;;;;;;6.14;98.17;92520.47;5049068;28;20045;-81
2021/11/02 01:41:35;;;;;;;15.18;10.63;;;;;;;6.23;97.13;92513.38;5050276;28;20049;-81
2021/11/02 01:44:03;;;;;;;17.13;10.90;;;;;;;6.26;96.37;92497.66;5051421;28;20068;-81
2021/11/02 01:46:31;;;;;;;15.45;10.63;;;;;;;6.46;95.62;92503.69;5050638;28;20091;-81
2021/11/02 01:49:01;;;;;;;16.25;10.57;;;;;;;6.41;94.38;92481.34;5050768;28;20053;-82
2021/11/02 01:51:30;;;;;;;16.52;11.10;;;;;;;6.58;93.64;92502.09;5050539;28;20045;-82
2021/11/02 01:53:59;;;;;;;16.20;10.35;;;;;;;6.72;93.21;92505.38;5050658;28;20368;-82
2021/11/02 01:56:27;;;;;;;17.92;10.18;;;;;;;6.74;92.07;92498.28;5050088;28;20056;-81
2021/11/02 01:58:54;;;;;;;15.13;10.55;;;;;;;6.85;91.90;92491.75;5050847;28;20103;-82
2021/11/02 02:01:32;;;;;;;15.93;10.32;;;;;;;6.95;91.55;92496.44;5050334;28;20056;-82
2021/11/02 02:04:12;;;;;;;18.95;10.57;;;;;;;6.84;91.37;92459.56;5049838;28;20045;-82
2021/11/02 02:07:01;;;;;;;16.30;10.77;;;;;;;7.12;90.52;92467.88;5052878;28;20566;-83
2021/11/02 02:09:35;;;;;;;18.35;11.65;;;;;;;7.15;90.35;92452.91;5053879;28;21231;-82
2021/11/02 02:12:22;;;;;;;14.93;10.48;;;;;;;7.08;90.48;92447.84;5053829;28;20053;-82
2021/11/02 02:14:59;;;;;;;16.23;10.45;;;;;;;7.17;89.87;92461.13;5053232;28;20394;-82
2021/11/02 02:17:32;;;;;;;17.67;10.50;;;;;;;7.26;89.50;92476.97;5053840;28;20405;-83
2021/11/02 02:20:06;;;;;;;14.55;9.93;;;;;;;7.27;89.22;92470.88;5053829;28;20052;-81
2021/11/02 02:22:58;;;;;;;16.08;10.75;;;;;;;7.20;89.35;92435.19;5053900;28;20052;-81
2021/11/02 02:25:40;;;;;;;15.93;10.48;;;;;;;7.37;88.87;92446.66;5053937;28;20086;-81
2021/11/02 02:28:14;;;;;;;13.48;9.77;;;;;;;7.32;88.54;92424.28;5053302;28;20508;-81
2021/11/02 02:30:47;;;;;;;17.10;11.27;;;;;;;7.46;87.63;92435.19;5053609;28;20048;-81
2021/11/02 02:33:15;;;;;;;15.93;9.60;;;;;;;7.53;86.31;92422.34;5053835;28;20044;-81
2021/11/02 02:35:45;;;;;;;14.85;10.13;;;;;;;7.56;85.69;92420.16;5053542;28;20044;-81
2021/11/02 02:38:14;;;;;;;15.77;9.77;;;;;;;7.57;85.77;92413.25;5053133;28;20044;-81
2021/11/02 02:40:42;;;;;;;15.95;10.60;;;;;;;7.57;85.83;92426.03;5053457;28;20049;-82
2021/11/02 02:43:10;;;;;;;16.02;10.57;;;;;;;7.53;85.60;92419.78;5053508;28;20190;-82
2021/11/02 02:45:38;;;;;;;16.95;10.52;;;;;;;7.64;84.98;92428.53;5052912;28;20063;-82
2021/11/02 02:48:06;;;;;;;15.88;10.57;;;;;;;7.56;85.13;92420.16;5052500;28;20048;-81
2021/11/02 02:50:34;;;;;;;16.67;10.25;;;;;;;7.54;85.12;92427.25;5052713;28;20048;-82
2021/11/02 02:53:04;;;;;;;17.75;10.45;;;;;;;7.64;84.39;92443.88;5053194;28;20057;-82
2021/11/02 02:55:32;;;;;;;15.55;10.18;;;;;;;7.78;83.27;92437.63;5053061;28;20103;-82
2021/11/02 02:58:01;;;;;;;16.77;10.30;;;;;;;7.77;83.55;92442.97;5052774;28;20136;-82
2021/11/02 03:00:29;;;;;;;13.63;9.65;;;;;;;7.78;83.38;92442.75;5052628;28;20055;-81
2021/11/02 03:03:00;;;;;;;16.20;9.38;;;;;;;7.82;83.40;92438.03;5052506;28;20494;-81
2021/11/02 03:05:27;;;;;;;14.02;9.32;;;;;;;7.73;83.17;92415.28;5052807;28;20048;-80
2021/11/02 03:07:55;;;;;;;15.68;9.50;;;;;;;7.78;84.10;92419.75;5052228;28;20060;-81
2021/11/02 03:10:24;;;;;;;14.85;9.30;;;;;;;7.82;84.12;92415.00;5052715;28;20049;-80
2021/11/02 03:12:54;;;;;;;17.08;9.75;;;;;;;7.76;84.73;92419.19;5052339;28;20075;-80
2021/11/02 03:18:20;;;;;;;13.38;8.57;;;;;;;7.87;84.45;92431.28;5048578;28;20052;-80
2021/11/02 03:51:41;;;;;;;12.95;8.60;;;;;;;7.96;82.98;92344.06;5051743;28;20109;-81
2021/11/02 03:57:06;;;;;;;16.43;10.10;;;;;;;7.77;83.31;92305.69;5051777;28;20121;-82
2021/11/02 04:28:10;;;;;;;18.35;10.43;;;;;;;7.89;85.43;92333.91;5051501;28;20438;-81
2021/11/02 05:46:40;;;;;;;23.73;13.63;;;;;;;7.68;88.42;92289.13;5024232;28;20091;-81
2021/11/02 05:48:35;;;;;;;20.98;13.10;;;;;;;7.69;90.11;92323.91;5054571;28;20060;-82
2021/11/02 05:51:28;;;;;;;16.30;11.02;;;;;;;7.71;90.21;92321.91;5054522;28;20053;-82
2021/11/02 05:56:47;;;;;;;21.33;13.13;;;;;;;7.76;90.32;92324.59;5032202;28;20060;-82
2021/11/02 05:59:21;;;;;;;19.80;12.80;;;;;;;7.79;89.66;92331.06;5053778;28;20045;-82
2021/11/02 06:01:57;;;;;;;21.17;12.65;;;;;;;7.78;89.29;92309.81;5054349;28;20135;-82
2021/11/02 06:07:30;;;;;;;24.52;14.52;;;;;;;7.88;89.59;92314.44;5043336;28;20056;-82
2021/11/02 06:10:13;;;;;;;22.02;13.57;;;;;;;7.98;88.81;92313.94;5032947;28;20077;-82
2021/11/02 06:29:30;;;;;;;15.60;10.40;;;;;;;8.34;89.82;92308.94;5032544;28;20595;-82
2021/11/02 06:32:00;;;;;;;20.23;11.57;;;;;;;8.40;90.35;92326.78;5032159;28;20049;-82
2021/11/02 06:34:40;;;;;;;17.10;11.55;;;;;;;8.53;90.53;92343.75;5031798;28;20053;-82
2021/11/02 06:37:31;;;;;;;18.83;11.77;;;;;;;8.63;90.51;92335.56;5031807;28;20087;-81
2021/11/02 06:40:15;;;;;;;18.73;13.15;;;;;;;8.65;90.87;92332.75;5031875;28;20049;-81
2021/11/02 06:43:04;;;;;;;29.25;18.77;;;;;;;8.57;92.01;92310.84;5032491;28;20045;-82
2021/11/02 06:48:35;;;;;;;21.48;11.82;;;;;;;8.67;91.50;92318.72;5031913;28;20065;-81
2021/11/02 06:54:17;;;;;;;20.60;12.70;;;;;;;8.74;93.53;92334.00;4989583;28;20058;-81
2021/11/02 06:57:17;;;;;;;17.80;12.07;;;;;;;8.66;95.36;92324.84;5026750;28;20141;-81
2021/11/02 07:19:36;;;;;;;19.65;13.07;;;;;;;8.23;100.00;92333.47;5031070;28;20056;-82
2021/11/02 07:22:17;;;;;;;22.90;14.95;;;;;;;8.11;100.00;92318.09;5031109;28;20042;-83
2021/11/02 07:24:52;;;;;;;24.95;14.63;;;;;;;8.28;100.00;92342.09;5031032;28;20037;-83
2021/11/02 07:27:30;;;;;;;25.70;15.93;;;;;;;8.26;100.00;92341.53;5031247;28;20123;-82
2021/11/02 08:45:44;;;;;;;;;;;;;;;8.40;100.00;92343.91;5050110;28;19975;-82
2021/11/02 08:48:10;;;;;;;;;;;;;;;8.34;100.00;92340.41;5049730;28;20019;-83
2021/11/02 08:50:42;;;;;;;15.40;10.38;;;;;;;8.22;100.00;92337.03;5049327;28;19921;-83
2021/11/02 08:53:11;;;;;;;18.45;11.65;;;;;;;7.99;100.00;92313.72;5049106;28;20456;-83
2021/11/02 08:55:38;;;;;;;20.52;11.75;;;;;;;8.15;100.00;92347.38;5049328;28;20055;-81
2021/11/02 08:58:06;;;;;;;15.25;9.85;;;;;;;8.08;100.00;92350.00;5049060;28;20516;-82
2021/11/02 09:00:34;;;;;;;12.40;8.93;;;;;;;8.10;100.00;92360.78;5049356;28;20060;-82
2021/11/02 09:03:09;;;;;;;13.30;9.27;;;;;;;8.05;100.00;92355.53;5049480;28;20053;-82
2021/11/02 09:05:38;;;;;;;13.65;8.50;;;;;;;7.94;100.00;92331.47;5049304;28;20134;-81
2021/11/02 09:08:10;;;;;;;15.80;9.05;;;;;;;8.10;100.00;92365.16;5048924;28;20049;-81
2021/11/02 09:10:41;;;;;;;14.23;9.55;;;;;;;7.99;100.00;92359.75;5048862;28;20564;-82
2021/11/02 09:13:10;;;;;;;13.20;8.63;;;;;;;8.01;100.00;92375.66;5049115;28;20510;-81
2021/11/02 09:15:39;;;;;;;15.48;10.00;;;;;;;8.05;100.00;92383.66;5048293;28;20132;-81
2021/11/02 09:18:07;;;;;;;17.70;10.65;;;;;;;7.93;100.00;92367.50;5049116;28;20045;-81
2021/11/02 09:20:35;;;;;;;16.02;10.20;;;;;;;8.11;100.00;92379.50;5048722;28;20099;-82
2021/11/02 09:23:02;;;;;;;14.80;9.63;;;;;;;8.00;100.00;92376.66;5048737;28;20049;-81
2021/11/02 09:25:31;;;;;;;13.88;9.18;;;;;;;7.97;100.00;92376.31;5048509;28;20055;-81
2021/11/02 09:27:58;;;;;;;20.50;12.80;;;;;;;8.04;100.00;92373.69;5049064;28;20136;-82
2021/11/02 09:30:26;;;;;;;17.88;11.20;;;;;;;8.05;100.00;92370.88;5049117;28;20049;-81
2021/11/02 09:32:55;;;;;;;15.32;10.05;;;;;;;8.04;100.00;92358.34;5049104;28;20052;-81
2021/11/02 09:35:24;;;;;;;13.55;9.60;;;;;;;8.00;100.00;92337.50;5049233;28;20056;-81
2021/11/02 09:37:59;;;;;;;17.52;8.55;;;;;;;7.92;100.00;92335.25;5048996;28;20049;-81
2021/11/02 09:41:03;;;;;;;9.40;6.47;;;;;;;7.90;100.00;92332.91;5049163;28;20052;-80
2021/11/02 09:43:57;;;;;;;9.25;6.25;;;;;;;7.84;100.00;92308.19;5048925;28;20041;-81
2021/11/02 09:46:59;;;;;;;10.57;6.53;;;;;;;8.00;100.00;92325.50;5049071;28;20056;-82
2021/11/02 09:49:53;;;;;;;12.43;6.43;;;;;;;7.98;100.00;92311.38;5048256;28;20571;-81
2021/11/02 09:52:56;;;;;;;9.20;5.78;;;;;;;7.98;100.00;92303.69;5038165;28;20497;-82
2021/11/02 09:55:42;;;;;;;10.80;7.68;;;;;;;7.93;100.00;92286.44;5049101;28;20045;-82
2021/11/02 09:58:28;;;;;;;17.08;10.55;;;;;;;7.98;100.00;92280.69;5048832;28;20130;-83
2021/11/02 10:01:06;;;;;;;15.40;10.10;;;;;;;8.12;100.00;92301.75;5048486;28;20045;-83
2021/11/02 10:04:22;;;;;;;12.10;8.07;;;;;;;8.12;100.00;92299.97;5048755;28;20041;-82
2021/11/02 10:07:09;;;;;;;17.85;12.43;;;;;;;8.12;100.00;92314.53;5048059;28;20053;-83
2021/11/02 10:09:39;;;;;;;24.23;14.82;;;;;;;8.21;100.00;92325.25;5048580;28;20063;-82
2021/11/02 10:12:18;;;;;;;16.40;10.48;;;;;;;8.15;100.00;92299.53;5048686;28;20049;-82
2021/11/02 10:15:09;;;;;;;11.98;7.93;;;;;;;8.23;100.00;92298.44;5048317;28;20049;-82
2021/11/02 10:18:25;;;;;;;12.82;7.68;;;;;;;8.11;100.00;92279.72;5048397;28;20139;-82
2021/11/02 10:21:21;;;;;;;12.30;7.65;;;;;;;8.33;100.00;92307.38;4986268;28;20058;-82
2021/11/02 10:24:27;;;;;;;8.82;6.38;;;;;;;8.29;100.00;92286.59;4986801;28;20101;-82
2021/11/02 10:27:15;;;;;;;9.88;6.93;;;;;;;8.28;100.00;92269.66;5044949;28;20056;-82
2021/11/02 10:30:30;;;;;;;10.82;7.90;;;;;;;8.14;100.00;92246.81;5051774;28;20153;-83
2021/11/02 10:33:01;;;;;;;;;;;;;;;8.31;100.00;92266.66;5049582;28;20067;-82
2021/11/02 10:35:37;;;;;;;12.45;7.20;;;;;;;8.37;100.00;92275.22;5050565;28;19955;-82
2021/11/02 10:38:12;;;;;;;13.32;8.32;;;;;;;8.41;100.00;92268.69;5051826;28;20049;-83
2021/11/02 10:40:50;;;;;;;12.63;7.68;;;;;;;8.46;100.00;92257.81;5051540;28;20465;-82
2021/11/02 10:43:39;;;;;;;11.60;7.10;;;;;;;8.32;100.00;92217.03;5050936;28;20520;-83
2021/11/02 10:46:07;;;;;;;12.73;7.63;;;;;;;8.70;100.00;92263.75;5051160;28;20418;-82
2021/11/02 10:48:41;;;;;;;12.13;7.63;;;;;;;8.68;100.00;92242.72;5051690;28;20506;-85
2021/11/02 10:51:10;;;;;;;14.57;8.38;;;;;;;8.82;100.00;92279.13;5051600;28;20139;-83
2021/11/02 10:53:39;;;;;;;12.55;7.90;;;;;;;8.52;100.00;92210.88;5051622;28;20048;-83
2021/11/02 10:56:11;;;;;;;20.27;11.70;;;;;;;9.04;100.00;92268.34;5051212;28;20045;-83
2021/11/02 10:58:44;;;;;;;16.60;9.60;;;;;;;8.84;100.00;92225.91;5051191;28;20053;-83
2021/11/02 11:01:12;;;;;;;15.93;9.50;;;;;;;9.24;100.00;92265.44;5051141;28;20517;-83
2021/11/02 11:03:40;;;;;;;14.93;8.15;;;;;;;9.20;100.00;92254.06;5052111;28;20071;-84
2021/11/02 11:06:09;;;;;;;13.50;8.25;;;;;;;9.38;100.00;92273.66;5050996;28;20053;-84
2021/11/02 11:08:38;;;;;;;11.70;6.38;;;;;;;9.35;100.00;92246.69;5051002;28;20591;-83
2021/11/02 11:11:06;;;;;;;12.27;7.07;;;;;;;9.02;100.00;92178.91;5051366;28;20053;-83
2021/11/02 11:13:34;;;;;;;12.55;6.65;;;;;;;9.60;100.00;92273.06;5050984;28;20057;-84
2021/11/02 11:16:11;;;;;;;13.30;8.38;;;;;;;9.63;100.00;92267.50;5051184;28;20063;-83
2021/11/02 11:18:52;;;;;;;11.52;7.10;;;;;;;9.70;100.00;92264.78;5051087;28;20045;-83
2021/11/02 11:21:19;;;;;;;12.98;5.93;;;;;;;9.62;100.00;92248.75;5050799;28;20139;-83
2021/11/02 11:23:54;;;;;;;23.48;9.93;;;;;;;9.70;100.00;92263.00;5050844;28;20049;-83
2021/11/02 11:26:24;;;;;;;12.73;7.15;;;;;;;9.70;100.00;92268.16;5051089;28;20057;-84
2021/11/02 11:28:55;;;;;;;8.50;5.28;;;;;;;9.70;100.00;92265.56;5051058;28;20071;-84
2021/11/02 11:31:26;;;;;;;8.32;5.10;;;;;;;9.68;100.00;92272.69;5050815;28;20048;-84
2021/11/02 11:34:01;;;;;;;10.40;5.03;;;;;;;9.45;100.00;92235.84;5050883;28;20057;-84
2021/11/02 11:36:30;;;;;;;12.02;6.05;;;;;;;9.61;100.00;92259.25;5050845;28;20049;-84
2021/11/02 11:39:00;;;;;;;10.82;5.47;;;;;;;9.54;100.00;92241.41;5049927;28;20081;-84
2021/11/02 11:41:27;;;;;;;8.75;5.50;;;;;;;9.69;100.00;92264.03;5050546;28;20045;-84
2021/11/02 11:43:57;;;;;;;11.80;6.07;;;;;;;9.68;100.00;92257.31;5050406;28;20049;-84
2021/11/02 11:46:28;;;;;;;17.05;7.93;;;;;;;9.68;100.00;92249.63;5050374;28;20497;-83
2021/11/02 11:48:56;;;;;;;17.08;9.10;;;;;;;9.87;100.00;92255.38;5050602;28;20057;-84
2021/11/02 11:51:25;;;;;;;19.25;8.23;;;;;;;9.99;100.00;92254.53;5050245;28;20041;-83
2021/11/02 11:53:58;;;;;;;12.68;6.72;;;;;;;9.94;100.00;92233.94;5050208;28;20080;-83
2021/11/02 11:56:31;;;;;;;10.23;6.07;;;;;;;10.09;100.00;92243.69;5050145;28;20516;-83
2021/11/02 11:58:58;;;;;;;14.10;7.13;;;;;;;10.01;100.00;92224.31;5050337;28;20052;-84
2021/11/02 12:01:36;;;;;;;12.77;6.97;;;;;;;10.09;100.00;92230.88;5050062;28;20111;-83
2021/11/02 12:04:09;;;;;;;10.25;5.80;;;;;;;10.26;100.00;92239.38;5050069;28;20049;-84
2021/11/02 12:06:46;;;;;;;7.00;5.07;;;;;;;10.35;100.00;92221.00;5050072;28;20127;-84
2021/11/02 12:09:18;;;;;;;8.80;5.38;;;;;;;10.29;100.00;92192.69;5049641;28;20127;-84
2021/11/02 12:11:45;;;;;;;7.60;5.22;;;;;;;10.49;100.00;92214.59;5049879;28;20414;-84
2021/11/02 12:14:18;;;;;;;12.30;7.32;;;;;;;10.61;100.00;92201.69;5049856;28;20452;-83
2021/11/02 12:16:47;;;;;;;18.92;10.80;;;;;;;10.51;100.00;92171.50;5049916;28;20106;-84
2021/11/02 12:19:21;;;;;;;13.80;8.68;;;;;;;10.56;100.00;92163.84;5049900;28;20045;-84
2021/11/02 12:22:01;;;;;;;11.63;6.50;;;;;;;10.77;100.00;92178.78;5049560;28;20874;-84
2021/11/02 12:24:34;;;;;;;13.32;7.05;;;;;;;10.86;100.00;92172.22;5049450;28;20462;-84
2021/11/02 12:27:13;;;;;;;11.90;7.53;;;;;;;11.12;100.00;92213.69;5049556;28;20050;-83
2021/11/02 12:29:41;;;;;;;7.88;5.13;;;;;;;11.22;100.00;92206.09;5050288;28;20045;-84
2021/11/02 12:32:12;;;;;;;8.95;5.82;;;;;;;11.11;100.00;92180.50;5050005;28;20143;-84
2021/11/02 12:34:47;;;;;;;12.18;5.80;;;;;;;11.20;100.00;92195.28;5049746;28;20048;-83
2021/11/02 12:37:15;;;;;;;12.75;5.55;;;;;;;11.39;100.00;92209.63;5049800;28;20053;-85
2021/11/02 12:39:43;;;;;;;8.98;4.95;;;;;;;11.33;100.00;92186.44;5050283;28;20049;-84
2021/11/02 12:42:11;;;;;;;8.63;4.60;;;;;;;11.38;100.00;92190.09;5049808;28;20482;-84
2021/11/02 12:44:39;;;;;;;7.97;4.50;;;;;;;11.42;100.00;92198.84;5049898;28;20049;-84
2021/11/02 12:47:12;;;;;;;7.22;4.60;;;;;;;11.54;100.00;92211.59;5049708;28;20456;-84
2021/11/02 12:49:43;;;;;;;7.75;4.10;;;;;;;11.50;100.00;92201.78;5043345;28;20052;-85
2021/11/02 12:52:13;;;;;;;11.35;5.07;;;;;;;11.60;100.00;92214.00;5040687;28;20053;-84
2021/11/02 12:54:44;;;;;;;5.93;3.13;;;;;;;11.68;100.00;92230.03;5032643;28;20079;-85
2021/11/02 12:57:14;;;;;;;7.25;3.83;;;;;;;11.69;100.00;92234.16;5029559;28;20057;-84
2021/11/02 12:59:48;;;;;;;5.50;3.65;;;;;;;11.57;100.00;92206.00;5030064;28;20053;-84
2021/11/02 13:02:20;;;;;;;6.38;3.53;;;;;;;11.54;100.00;92202.09;5036517;28;20059;-84
2021/11/02 13:04:57;;;;;;;8.70;3.92;;;;;;;11.71;100.00;92225.16;5030251;28;20053;-84
2021/11/02 13:07:26;;;;;;;8.32;4.03;;;;;;;11.67;100.00;92218.94;5029996;28;20059;-85
2021/11/02 13:09:55;;;;;;;7.95;3.67;;;;;;;11.65;100.00;92207.34;5048987;28;20438;-84
2021/11/02 13:12:26;;;;;;;9.15;4.03;;;;;;;11.92;100.00;92225.41;5055192;28;20052;-85
2021/11/02 13:15:02;;;;;;;7.40;3.80;;;;;;;11.71;100.00;92199.44;5055511;28;20877;-84
2021/11/02 13:17:41;;;;;;;;;;;;;;;11.95;100.00;92224.91;5055584;28;20195;-84
2021/11/02 13:20:09;;;;;;;6.38;3.88;;;;;;;11.99;100.00;92231.13;5055214;28;19929;-84
2021/11/02 13:22:36;;;;;;;7.10;3.45;;;;;;;11.94;100.00;92207.16;5055615;28;20448;-84
2021/11/02 13:25:07;;;;;;;5.32;3.28;;;;;;;12.12;100.00;92224.06;5055575;28;20049;-84
2021/11/02 13:27:41;;;;;;;5.28;3.15;;;;;;;12.20;100.00;92226.19;5054937;28;20053;-84
2021/11/02 13:30:38;;;;;;;5.82;2.88;;;;;;;12.27;100.00;92213.91;5054665;28;20115;-85
2021/11/02 13:33:09;;;;;;;6.68;3.38;;;;;;;12.31;100.00;92203.88;5012282;28;20422;-83
2021/11/02 13:35:55;;;;;;;6.60;2.60;;;;;;;12.40;100.00;92220.44;5045618;28;20135;-84
2021/11/02 13:38:35;;;;;;;4.28;2.33;;;;;;;11.94;100.00;92146.13;5054151;28;20037;-83
2021/11/02 13:41:10;;;;;;;4.50;2.30;;;;;;;12.52;100.00;92215.16;5054632;28;20060;-84
2021/11/02 13:43:39;;;;;;;5.50;2.58;;;;;;;12.50;100.00;92201.72;5054395;28;20094;-83
2021/11/02 13:46:07;;;;;;;5.10;2.10;;;;;;;12.48;100.00;92214.06;5054557;28;20461;-83
2021/11/02 13:48:36;;;;;;;6.30;2.70;;;;;;;12.46;100.00;92223.84;5054858;28;20052;-83
2021/11/02 13:51:07;;;;;;;7.00;3.15;;;;;;;12.56;100.00;92239.38;5055152;28;20052;-83
2021/11/02 13:53:35;;;;;;;7.00;3.20;;;;;;;12.60;100.00;92238.91;5055033;28;20049;-83
2021/11/02 13:56:04;;;;;;;5.85;2.97;;;;;;;12.43;100.00;92211.47;5054829;28;21161;-83
2021/11/02 13:58:32;;;;;;;14.48;5.40;;;;;;;12.50;100.00;92219.00;5055048;28;20119;-84
2021/11/02 14:00:59;;;;;;;12.43;4.93;;;;;;;12.61;100.00;92240.44;5055666;28;20064;-83
2021/11/02 14:03:32;;;;;;;8.50;4.07;;;;;;;12.61;100.00;92245.59;5058417;28;20052;-83
2021/11/02 14:06:03;;;;;;;14.45;5.50;;;;;;;12.36;100.00;92205.75;5057650;28;20053;-83
2021/11/02 14:08:30;;;;;;;8.90;4.70;;;;;;;12.68;100.00;92233.28;5058208;28;20048;-84
2021/11/02 14:10:59;;;;;;;17.02;6.90;;;;;;;12.61;100.00;92215.47;5058300;28;20044;-83
2021/11/02 14:13:43;;;;;;;7.35;3.22;;;;;;;12.74;100.00;92223.78;5057757;28;20045;-84
2021/11/02 14:16:11;;;;;;;7.67;2.80;;;;;;;12.75;100.00;92223.56;5057574;28;20081;-83
2021/11/02 14:18:40;;;;;;;6.28;3.00;;;;;;;12.63;100.00;92210.06;5058018;28;20281;-84
2021/11/02 14:21:10;;;;;;;7.43;3.08;;;;;;;12.58;100.00;92202.31;5053922;28;21061;-84
2021/11/02 14:23:40;;;;;;;4.63;2.50;;;;;;;12.44;100.00;92189.81;5055986;28;20041;-84
2021/11/02 14:26:23;;;;;;;5.63;2.28;;;;;;;12.61;100.00;92220.63;5058004;28;20049;-84
2021/11/02 14:28:55;;;;;;;6.53;2.72;;;;;;;12.37;100.00;92207.28;5065572;28;20094;-83
2021/11/02 14:31:46;;;;;;;8.57;2.70;;;;;;;12.58;100.00;92246.09;5071604;28;20489;-84
2021/11/02 14:34:28;;;;;;;6.50;3.70;;;;;;;12.32;100.00;92217.53;5071929;28;20055;-83
2021/11/02 14:37:13;;;;;;;7.80;3.40;;;;;;;12.35;100.00;92222.97;5058675;28;20055;-83
2021/11/02 14:39:56;;;;;;;7.53;3.55;;;;;;;12.32;100.00;92220.13;5070854;28;20049;-84
2021/11/02 14:42:50;;;;;;;8.68;2.33;;;;;;;12.43;100.00;92237.22;5071915;28;20049;-84
2021/11/02 14:45:19;;;;;;;6.38;3.08;;;;;;;12.41;100.00;92228.97;5071650;28;20045;-84
2021/11/02 14:47:46;;;;;;;9.30;4.13;;;;;;;12.43;100.00;92237.22;5071847;28;20060;-83
2021/11/02 14:50:37;;;;;;;8.48;3.78;;;;;;;12.26;100.00;92206.41;5071514;28;20122;-84
2021/11/02 14:53:17;;;;;;;5.82;3.10;;;;;;;12.36;100.00;92242.56;5070949;28;20056;-84
2021/11/02 14:55:52;;;;;;;7.63;2.75;;;;;;;12.34;100.00;92243.81;5071153;28;20060;-84
2021/11/02 14:58:42;;;;;;;5.90;3.00;;;;;;;12.32;100.00;92251.03;5071557;28;20142;-83
2021/11/02 15:01:10;;;;;;;20.38;8.50;;;;;;;12.29;100.00;92254.88;5071354;28;20053;-83
2021/11/02 15:03:37;;;;;;;11.57;5.43;;;;;;;12.21;100.00;92250.91;5071197;28;20049;-83
2021/11/02 15:06:05;;;;;;;7.30;3.53;;;;;;;11.75;100.00;92197.94;5071392;28;20040;-83
2021/11/02 15:08:35;;;;;;;6.95;3.78;;;;;;;12.04;100.00;92233.00;5071286;28;20407;-83
2021/11/02 15:11:07;;;;;;;7.45;3.47;;;;;;;12.09;100.00;92256.19;5071325;28;20396;-83
2021/11/02 15:13:34;;;;;;;5.93;3.20;;;;;;;11.94;100.00;92254.22;5069748;28;20611;-83
2021/11/02 15:16:02;;;;;;;7.60;4.45;;;;;;;11.97;100.00;92248.59;5071083;28;20048;-83
2021/11/02 15:18:37;;;;;;;12.20;4.50;;;;;;;11.82;100.00;92233.00;5071319;28;20056;-83
2021/11/02 15:21:04;;;;;;;11.75;6.15;;;;;;;11.94;100.00;92253.47;5071158;28;20055;-83
2021/11/02 15:23:42;;;;;;;11.07;5.63;;;;;;;11.86;100.00;92250.28;5069605;28;20050;-83
2021/11/02 15:26:10;;;;;;;7.93;3.90;;;;;;;11.73;100.00;92254.03;5056581;28;20048;-83
2021/11/02 15:28:42;;;;;;;8.40;3.90;;;;;;;11.58;100.00;92241.75;5056413;28;20486;-83
2021/11/02 15:31:08;;;;;;;9.35;6.75;;;;;;;11.66;100.00;92266.28;5056229;28;20048;-85
2021/11/02 15:33:39;;;;;;;6.55;4.78;;;;;;;11.59;100.00;92250.25;5056938;28;20412;-85
2021/11/02 15:36:18;;;;;;;4.75;2.90;;;;;;;11.62;100.00;92275.50;5052423;28;20059;-84
2021/11/02 15:39:00;;;;;;;5.40;3.20;;;;;;;11.28;100.00;92227.50;5055029;28;20049;-84
2021/11/02 15:41:28;;;;;;;6.35;2.58;;;;;;;11.45;100.00;92266.03;5056408;28;20052;-83
2021/11/02 15:43:58;;;;;;;7.00;2.78;;;;;;;11.42;100.00;92261.34;5056394;28;20086;-84
2021/11/02 15:46:37;;;;;;;4.38;2.45;;;;;;;11.40;100.00;92255.69;5056248;28;20049;-83
2021/11/02 15:49:05;;;;;;;7.53;2.08;;;;;;;11.42;100.00;92268.28;5056811;28;20059;-83
2021/11/02 15:51:35;;;;;;;5.63;2.10;;;;;;;11.33;100.00;92249.91;5056127;28;20053;-83
2021/11/02 15:54:12;;;;;;;4.20;2.33;;;;;;;11.29;100.00;92252.19;5055984;28;20099;-83
2021/11/02 15:56:40;;;;;;;4.30;2.30;;;;;;;11.23;100.00;92263.44;5055990;28;20528;-82
2021/11/02 15:59:09;;;;;;;4.45;2.33;;;;;;;11.21;100.00;92273.19;5056009;28;20049;-82
2021/11/02 16:01:39;;;;;;;3.67;2.20;;;;;;;11.05;100.00;92242.13;5056147;28;20502;-83
2021/11/02 16:04:19;;;;;;;3.95;2.13;;;;;;;11.05;100.00;92243.91;5056018;28;20064;-83
2021/11/02 16:07:11;;;;;;;5.10;2.60;;;;;;;11.22;100.00;92269.59;5056215;28;20052;-84
2021/11/02 16:10:00;;;;;;;4.05;2.58;;;;;;;11.19;100.00;92281.13;5055894;28;20048;-84
2021/11/02 16:12:30;;;;;;;7.45;3.40;;;;;;;11.20;100.00;92285.25;5050383;28;20440;-84
2021/11/02 16:15:08;;;;;;;6.38;3.40;;;;;;;11.20;100.00;92290.38;5055543;28;20494;-83
2021/11/02 16:17:40;;;;;;;4.13;2.72;;;;;;;11.13;100.00;92286.41;5055000;28;20137;-84
2021/11/02 16:20:13;;;;;;;4.55;3.30;;;;;;;11.17;100.00;92290.06;5053992;28;20063;-83